Terminal Aerodrome Forecast
Issued by NWS

Home | Current Version | Previous Version | Text Only | Print | Product List | Glossary On
Versions: 1 2 3 4 5 6 7 8 9 10 11 12
415
FTUS45 KABQ 281740
TAFAEG
TAF
KAEG 281740Z 2818/2918 14007KT P6SM SCT070 SCT120
     FM282000 23006KT P6SM VCSH SCT070 BKN110
      TEMPO 2820/2823 VRB16G28KT -TSRA BKN070CB BKN100
     FM282300 30008KT P6SM VCSH SCT070 BKN100
     FM290400 33006KT P6SM SCT090 SCT140=

USA.gov is the U.S. government's official web portal to all federal, state and local government web resources and services.